sensor_id;sensor_type;location;lat;lon;timestamp;P1;durP1;ratioP1;P2;durP2;ratioP2
80707;SDS011;70222;49.204;-122.940;2023-08-24T00:02:08;3.40;;;2.42;;
80707;SDS011;70222;49.204;-122.940;2023-08-24T00:04:34;3.28;;;2.33;;
80707;SDS011;70222;49.204;-122.940;2023-08-24T00:07:00;4.55;;;2.78;;
80707;SDS011;70222;49.204;-122.940;2023-08-24T00:09:26;3.17;;;2.58;;
80707;SDS011;70222;49.204;-122.940;2023-08-24T00:14:18;4.15;;;2.58;;
80707;SDS011;70222;49.204;-122.940;2023-08-24T00:16:44;3.53;;;2.38;;
80707;SDS011;70222;49.204;-122.940;2023-08-24T00:19:10;3.25;;;2.55;;
80707;SDS011;70222;49.204;-122.940;2023-08-24T00:21:36;3.85;;;2.60;;
80707;SDS011;70222;49.204;-122.940;2023-08-24T00:24:03;5.03;;;2.65;;
80707;SDS011;70222;49.204;-122.940;2023-08-24T00:26:29;3.70;;;2.60;;
80707;SDS011;70222;49.204;-122.940;2023-08-24T00:28:55;4.25;;;2.88;;
80707;SDS011;70222;49.204;-122.940;2023-08-24T00:31:21;4.07;;;2.70;;
80707;SDS011;70222;49.204;-122.940;2023-08-24T00:33:47;4.28;;;2.83;;
80707;SDS011;70222;49.204;-122.940;2023-08-24T00:36:15;4.35;;;2.90;;
80707;SDS011;70222;49.204;-122.940;2023-08-24T00:38:43;5.25;;;2.70;;
80707;SDS011;70222;49.204;-122.940;2023-08-24T00:41:09;4.30;;;2.85;;
80707;SDS011;70222;49.204;-122.940;2023-08-24T00:43:35;4.22;;;2.88;;
80707;SDS011;70222;49.204;-122.940;2023-08-24T00:46:01;3.33;;;2.80;;
80707;SDS011;70222;49.204;-122.940;2023-08-24T00:48:29;4.88;;;2.65;;
80707;SDS011;70222;49.204;-122.940;2023-08-24T00:50:55;4.95;;;3.75;;
80707;SDS011;70222;49.204;-122.940;2023-08-24T00:53:23;5.38;;;2.95;;
80707;SDS011;70222;49.204;-122.940;2023-08-24T00:55:51;3.92;;;2.60;;
80707;SDS011;70222;49.204;-122.940;2023-08-24T00:58:18;5.82;;;3.55;;
80707;SDS011;70222;49.204;-122.940;2023-08-24T01:00:44;4.22;;;2.72;;
80707;SDS011;70222;49.204;-122.940;2023-08-24T01:03:11;3.80;;;2.60;;
80707;SDS011;70222;49.204;-122.940;2023-08-24T01:05:37;3.88;;;2.72;;
80707;SDS011;70222;49.204;-122.940;2023-08-24T01:08:03;4.47;;;2.63;;
80707;SDS011;70222;49.204;-122.940;2023-08-24T01:10:33;8.13;;;2.83;;
80707;SDS011;70222;49.204;-122.940;2023-08-24T01:13:09;5.60;;;2.95;;
80707;SDS011;70222;49.204;-122.940;2023-08-24T01:18:11;4.13;;;2.85;;
80707;SDS011;70222;49.204;-122.940;2023-08-24T01:20:40;3.97;;;2.75;;
80707;SDS011;70222;49.204;-122.940;2023-08-24T01:28:29;6.50;;;2.80;;
80707;SDS011;70222;49.204;-122.940;2023-08-24T01:30:56;4.68;;;3.08;;
80707;SDS011;70222;49.204;-122.940;2023-08-24T01:33:22;3.80;;;2.58;;
80707;SDS011;70222;49.204;-122.940;2023-08-24T01:35:48;6.57;;;2.88;;
80707;SDS011;70222;49.204;-122.940;2023-08-24T01:38:14;4.28;;;2.97;;
80707;SDS011;70222;49.204;-122.940;2023-08-24T01:40:55;4.95;;;3.22;;
80707;SDS011;70222;49.204;-122.940;2023-08-24T01:43:26;4.75;;;2.78;;
80707;SDS011;70222;49.204;-122.940;2023-08-24T01:45:59;5.07;;;3.03;;
80707;SDS011;70222;49.204;-122.940;2023-08-24T01:50:51;5.88;;;3.40;;
80707;SDS011;70222;49.204;-122.940;2023-08-24T01:53:17;6.15;;;3.47;;
80707;SDS011;70222;49.204;-122.940;2023-08-24T01:55:47;5.32;;;3.58;;
80707;SDS011;70222;49.204;-122.940;2023-08-24T01:58:13;4.45;;;3.13;;
80707;SDS011;70222;49.204;-122.940;2023-08-24T02:00:39;6.90;;;3.20;;
80707;SDS011;70222;49.204;-122.940;2023-08-24T02:03:05;5.03;;;2.83;;
80707;SDS011;70222;49.204;-122.940;2023-08-24T02:05:31;4.97;;;3.40;;
80707;SDS011;70222;49.204;-122.940;2023-08-24T02:07:58;4.40;;;2.70;;
80707;SDS011;70222;49.204;-122.940;2023-08-24T02:10:25;5.93;;;3.25;;
80707;SDS011;70222;49.204;-122.940;2023-08-24T02:12:51;4.05;;;2.92;;
80707;SDS011;70222;49.204;-122.940;2023-08-24T02:15:17;5.65;;;3.60;;
80707;SDS011;70222;49.204;-122.940;2023-08-24T02:17:43;5.75;;;2.75;;
80707;SDS011;70222;49.204;-122.940;2023-08-24T02:20:10;4.22;;;2.92;;
80707;SDS011;70222;49.204;-122.940;2023-08-24T02:22:39;4.93;;;3.00;;
80707;SDS011;70222;49.204;-122.940;2023-08-24T02:25:05;5.45;;;3.00;;
80707;SDS011;70222;49.204;-122.940;2023-08-24T02:27:32;4.97;;;3.00;;
80707;SDS011;70222;49.204;-122.940;2023-08-24T02:29:58;6.45;;;3.53;;
80707;SDS011;70222;49.204;-122.940;2023-08-24T02:34:51;7.63;;;4.25;;
80707;SDS011;70222;49.204;-122.940;2023-08-24T02:37:17;6.82;;;4.43;;
80707;SDS011;70222;49.204;-122.940;2023-08-24T02:39:43;7.60;;;4.80;;
80707;SDS011;70222;49.204;-122.940;2023-08-24T02:42:09;7.82;;;5.25;;
80707;SDS011;70222;49.204;-122.940;2023-08-24T02:44:36;7.72;;;4.90;;
80707;SDS011;70222;49.204;-122.940;2023-08-24T02:47:02;6.57;;;4.63;;
80707;SDS011;70222;49.204;-122.940;2023-08-24T02:49:28;7.65;;;5.05;;
80707;SDS011;70222;49.204;-122.940;2023-08-24T02:51:54;8.77;;;5.60;;
80707;SDS011;70222;49.204;-122.940;2023-08-24T02:54:20;7.53;;;5.22;;
80707;SDS011;70222;49.204;-122.940;2023-08-24T02:56:46;8.25;;;5.30;;
80707;SDS011;70222;49.204;-122.940;2023-08-24T02:59:12;9.48;;;5.30;;
80707;SDS011;70222;49.204;-122.940;2023-08-24T03:01:38;9.65;;;5.55;;
80707;SDS011;70222;49.204;-122.940;2023-08-24T03:04:06;10.57;;;5.47;;
80707;SDS011;70222;49.204;-122.940;2023-08-24T03:06:32;8.75;;;5.57;;
80707;SDS011;70222;49.204;-122.940;2023-08-24T03:08:59;9.32;;;5.43;;
80707;SDS011;70222;49.204;-122.940;2023-08-24T03:11:26;9.50;;;5.47;;
80707;SDS011;70222;49.204;-122.940;2023-08-24T03:13:52;8.23;;;5.45;;
80707;SDS011;70222;49.204;-122.940;2023-08-24T03:16:18;8.70;;;5.70;;
80707;SDS011;70222;49.204;-122.940;2023-08-24T03:18:45;12.07;;;6.45;;
80707;SDS011;70222;49.204;-122.940;2023-08-24T03:21:11;9.05;;;5.72;;
80707;SDS011;70222;49.204;-122.940;2023-08-24T03:23:37;9.05;;;5.45;;
80707;SDS011;70222;49.204;-122.940;2023-08-24T03:26:04;10.05;;;6.10;;
80707;SDS011;70222;49.204;-122.940;2023-08-24T03:28:32;7.20;;;5.18;;
80707;SDS011;70222;49.204;-122.940;2023-08-24T03:30:58;9.93;;;6.15;;
80707;SDS011;70222;49.204;-122.940;2023-08-24T03:33:24;9.40;;;5.25;;
80707;SDS011;70222;49.204;-122.940;2023-08-24T03:35:51;12.48;;;6.07;;
80707;SDS011;70222;49.204;-122.940;2023-08-24T03:38:18;10.60;;;7.05;;
80707;SDS011;70222;49.204;-122.940;2023-08-24T03:40:44;11.55;;;7.22;;
80707;SDS011;70222;49.204;-122.940;2023-08-24T03:43:10;12.70;;;6.75;;
80707;SDS011;70222;49.204;-122.940;2023-08-24T03:45:36;10.50;;;6.30;;
80707;SDS011;70222;49.204;-122.940;2023-08-24T03:48:03;12.25;;;6.88;;
80707;SDS011;70222;49.204;-122.940;2023-08-24T03:50:29;11.35;;;7.18;;
80707;SDS011;70222;49.204;-122.940;2023-08-24T03:52:56;9.98;;;6.75;;
80707;SDS011;70222;49.204;-122.940;2023-08-24T03:55:22;10.50;;;6.93;;
80707;SDS011;70222;49.204;-122.940;2023-08-24T03:57:48;11.35;;;6.93;;
80707;SDS011;70222;49.204;-122.940;2023-08-24T04:00:14;10.60;;;7.10;;
80707;SDS011;70222;49.204;-122.940;2023-08-24T04:02:42;10.40;;;6.70;;
80707;SDS011;70222;49.204;-122.940;2023-08-24T04:05:08;11.45;;;6.90;;
80707;SDS011;70222;49.204;-122.940;2023-08-24T04:07:34;11.15;;;6.65;;
80707;SDS011;70222;49.204;-122.940;2023-08-24T04:10:05;13.98;;;7.18;;
80707;SDS011;70222;49.204;-122.940;2023-08-24T04:12:32;10.90;;;7.40;;
80707;SDS011;70222;49.204;-122.940;2023-08-24T04:14:58;10.45;;;7.20;;
80707;SDS011;70222;49.204;-122.940;2023-08-24T04:17:24;11.75;;;6.28;;
80707;SDS011;70222;49.204;-122.940;2023-08-24T04:19:51;11.05;;;7.60;;
80707;SDS011;70222;49.204;-122.940;2023-08-24T04:22:17;11.50;;;7.13;;
80707;SDS011;70222;49.204;-122.940;2023-08-24T04:24:43;13.63;;;9.35;;
80707;SDS011;70222;49.204;-122.940;2023-08-24T04:27:09;12.32;;;7.35;;
80707;SDS011;70222;49.204;-122.940;2023-08-24T04:29:36;11.73;;;7.35;;
80707;SDS011;70222;49.204;-122.940;2023-08-24T04:32:02;12.18;;;7.47;;
80707;SDS011;70222;49.204;-122.940;2023-08-24T04:40:16;10.60;;;7.07;;
80707;SDS011;70222;49.204;-122.940;2023-08-24T04:42:42;13.20;;;8.18;;
80707;SDS011;70222;49.204;-122.940;2023-08-24T04:45:08;12.30;;;8.25;;
80707;SDS011;70222;49.204;-122.940;2023-08-24T04:47:35;13.05;;;8.00;;
80707;SDS011;70222;49.204;-122.940;2023-08-24T04:50:01;11.85;;;8.02;;
80707;SDS011;70222;49.204;-122.940;2023-08-24T04:52:27;11.50;;;8.48;;
80707;SDS011;70222;49.204;-122.940;2023-08-24T04:54:53;14.55;;;8.25;;
80707;SDS011;70222;49.204;-122.940;2023-08-24T04:57:19;12.18;;;7.57;;
80707;SDS011;70222;49.204;-122.940;2023-08-24T04:59:45;14.38;;;7.88;;
80707;SDS011;70222;49.204;-122.940;2023-08-24T05:02:11;11.27;;;7.88;;
80707;SDS011;70222;49.204;-122.940;2023-08-24T05:04:37;13.82;;;8.60;;
80707;SDS011;70222;49.204;-122.940;2023-08-24T05:07:03;11.18;;;6.65;;
80707;SDS011;70222;49.204;-122.940;2023-08-24T05:09:29;12.32;;;7.50;;
80707;SDS011;70222;49.204;-122.940;2023-08-24T05:11:56;14.48;;;7.38;;
80707;SDS011;70222;49.204;-122.940;2023-08-24T05:14:22;13.07;;;7.53;;
80707;SDS011;70222;49.204;-122.940;2023-08-24T05:16:48;12.52;;;7.68;;
80707;SDS011;70222;49.204;-122.940;2023-08-24T05:19:14;11.40;;;7.25;;
80707;SDS011;70222;49.204;-122.940;2023-08-24T05:21:40;12.55;;;7.45;;
80707;SDS011;70222;49.204;-122.940;2023-08-24T05:24:06;13.00;;;7.35;;
80707;SDS011;70222;49.204;-122.940;2023-08-24T05:26:32;12.68;;;7.15;;
80707;SDS011;70222;49.204;-122.940;2023-08-24T05:28:58;17.10;;;7.22;;
80707;SDS011;70222;49.204;-122.940;2023-08-24T05:31:24;14.15;;;7.80;;
80707;SDS011;70222;49.204;-122.940;2023-08-24T05:33:50;12.73;;;7.80;;
80707;SDS011;70222;49.204;-122.940;2023-08-24T05:36:17;14.80;;;8.55;;
80707;SDS011;70222;49.204;-122.940;2023-08-24T05:41:12;13.38;;;7.82;;
80707;SDS011;70222;49.204;-122.940;2023-08-24T05:43:39;12.93;;;8.13;;
80707;SDS011;70222;49.204;-122.940;2023-08-24T05:46:05;18.02;;;10.10;;
80707;SDS011;70222;49.204;-122.940;2023-08-24T05:48:31;18.13;;;10.20;;
80707;SDS011;70222;49.204;-122.940;2023-08-24T05:50:57;15.77;;;9.32;;
80707;SDS011;70222;49.204;-122.940;2023-08-24T05:53:23;14.95;;;9.57;;
80707;SDS011;70222;49.204;-122.940;2023-08-24T05:55:49;14.30;;;8.75;;
80707;SDS011;70222;49.204;-122.940;2023-08-24T05:58:15;15.07;;;9.00;;
80707;SDS011;70222;49.204;-122.940;2023-08-24T06:00:41;14.23;;;8.20;;
80707;SDS011;70222;49.204;-122.940;2023-08-24T06:03:07;13.70;;;8.35;;
80707;SDS011;70222;49.204;-122.940;2023-08-24T06:05:33;13.48;;;8.02;;
80707;SDS011;70222;49.204;-122.940;2023-08-24T06:08:00;14.75;;;8.05;;
80707;SDS011;70222;49.204;-122.940;2023-08-24T06:10:26;15.35;;;8.80;;
80707;SDS011;70222;49.204;-122.940;2023-08-24T06:12:52;15.55;;;8.57;;
80707;SDS011;70222;49.204;-122.940;2023-08-24T06:15:18;13.05;;;8.93;;
80707;SDS011;70222;49.204;-122.940;2023-08-24T06:20:13;12.88;;;7.90;;
80707;SDS011;70222;49.204;-122.940;2023-08-24T06:22:39;12.85;;;9.40;;
80707;SDS011;70222;49.204;-122.940;2023-08-24T06:25:05;12.75;;;7.95;;
80707;SDS011;70222;49.204;-122.940;2023-08-24T06:27:33;14.45;;;8.25;;
80707;SDS011;70222;49.204;-122.940;2023-08-24T06:30:00;14.40;;;8.32;;
80707;SDS011;70222;49.204;-122.940;2023-08-24T06:32:26;15.48;;;7.93;;
80707;SDS011;70222;49.204;-122.940;2023-08-24T06:34:52;13.13;;;7.60;;
80707;SDS011;70222;49.204;-122.940;2023-08-24T06:37:19;11.68;;;6.65;;
80707;SDS011;70222;49.204;-122.940;2023-08-24T06:39:45;11.20;;;7.05;;
80707;SDS011;70222;49.204;-122.940;2023-08-24T06:42:11;10.63;;;6.70;;
80707;SDS011;70222;49.204;-122.940;2023-08-24T06:44:38;10.02;;;6.15;;
80707;SDS011;70222;49.204;-122.940;2023-08-24T06:47:04;10.63;;;7.05;;
80707;SDS011;70222;49.204;-122.940;2023-08-24T06:49:30;11.75;;;6.55;;
80707;SDS011;70222;49.204;-122.940;2023-08-24T06:51:56;12.77;;;7.00;;
80707;SDS011;70222;49.204;-122.940;2023-08-24T06:54:22;10.25;;;6.20;;
80707;SDS011;70222;49.204;-122.940;2023-08-24T06:56:48;11.60;;;6.97;;
80707;SDS011;70222;49.204;-122.940;2023-08-24T06:59:14;12.85;;;6.95;;
80707;SDS011;70222;49.204;-122.940;2023-08-24T07:01:40;14.32;;;7.90;;
80707;SDS011;70222;49.204;-122.940;2023-08-24T07:04:06;11.88;;;7.03;;
80707;SDS011;70222;49.204;-122.940;2023-08-24T07:06:33;12.57;;;6.88;;
80707;SDS011;70222;49.204;-122.940;2023-08-24T07:09:02;12.05;;;5.97;;
80707;SDS011;70222;49.204;-122.940;2023-08-24T07:11:31;12.82;;;7.47;;
80707;SDS011;70222;49.204;-122.940;2023-08-24T07:13:57;13.93;;;7.18;;
80707;SDS011;70222;49.204;-122.940;2023-08-24T07:16:24;12.77;;;7.60;;
80707;SDS011;70222;49.204;-122.940;2023-08-24T07:18:50;11.15;;;6.45;;
80707;SDS011;70222;49.204;-122.940;2023-08-24T07:21:16;12.60;;;7.72;;
80707;SDS011;70222;49.204;-122.940;2023-08-24T07:23:42;12.80;;;7.63;;
80707;SDS011;70222;49.204;-122.940;2023-08-24T07:26:09;11.90;;;7.65;;
80707;SDS011;70222;49.204;-122.940;2023-08-24T07:28:35;16.38;;;7.70;;
80707;SDS011;70222;49.204;-122.940;2023-08-24T07:31:10;12.55;;;6.93;;
80707;SDS011;70222;49.204;-122.940;2023-08-24T07:33:38;16.55;;;8.25;;
80707;SDS011;70222;49.204;-122.940;2023-08-24T07:36:04;11.10;;;6.95;;
80707;SDS011;70222;49.204;-122.940;2023-08-24T07:38:31;12.27;;;6.97;;
80707;SDS011;70222;49.204;-122.940;2023-08-24T07:40:57;12.93;;;7.85;;
80707;SDS011;70222;49.204;-122.940;2023-08-24T07:43:24;12.48;;;7.38;;
80707;SDS011;70222;49.204;-122.940;2023-08-24T07:45:50;10.43;;;6.03;;
80707;SDS011;70222;49.204;-122.940;2023-08-24T07:48:17;12.55;;;7.20;;
80707;SDS011;70222;49.204;-122.940;2023-08-24T07:50:43;14.13;;;7.15;;
80707;SDS011;70222;49.204;-122.940;2023-08-24T07:53:09;11.93;;;6.80;;
80707;SDS011;70222;49.204;-122.940;2023-08-24T07:55:35;13.32;;;8.05;;
80707;SDS011;70222;49.204;-122.940;2023-08-24T07:58:01;13.43;;;6.95;;
80707;SDS011;70222;49.204;-122.940;2023-08-24T08:00:29;12.23;;;6.68;;
80707;SDS011;70222;49.204;-122.940;2023-08-24T08:02:55;11.52;;;6.47;;
80707;SDS011;70222;49.204;-122.940;2023-08-24T08:05:21;11.75;;;7.00;;
80707;SDS011;70222;49.204;-122.940;2023-08-24T08:07:48;11.75;;;7.50;;
80707;SDS011;70222;49.204;-122.940;2023-08-24T08:10:14;15.48;;;7.55;;
80707;SDS011;70222;49.204;-122.940;2023-08-24T08:12:42;12.70;;;7.28;;
80707;SDS011;70222;49.204;-122.940;2023-08-24T08:15:08;11.43;;;7.53;;
80707;SDS011;70222;49.204;-122.940;2023-08-24T08:17:34;14.75;;;6.90;;
80707;SDS011;70222;49.204;-122.940;2023-08-24T08:20:01;11.52;;;6.32;;
80707;SDS011;70222;49.204;-122.940;2023-08-24T08:22:28;12.57;;;6.90;;
80707;SDS011;70222;49.204;-122.940;2023-08-24T08:24:54;13.38;;;7.32;;
80707;SDS011;70222;49.204;-122.940;2023-08-24T08:29:48;12.77;;;6.25;;
80707;SDS011;70222;49.204;-122.940;2023-08-24T08:32:15;8.52;;;5.32;;
80707;SDS011;70222;49.204;-122.940;2023-08-24T08:34:42;8.82;;;5.50;;
80707;SDS011;70222;49.204;-122.940;2023-08-24T08:37:08;7.68;;;5.40;;
80707;SDS011;70222;49.204;-122.940;2023-08-24T08:39:34;9.82;;;5.30;;
80707;SDS011;70222;49.204;-122.940;2023-08-24T08:42:00;11.00;;;5.65;;
80707;SDS011;70222;49.204;-122.940;2023-08-24T08:44:30;10.93;;;5.75;;
80707;SDS011;70222;49.204;-122.940;2023-08-24T08:46:57;7.78;;;4.47;;
80707;SDS011;70222;49.204;-122.940;2023-08-24T08:49:23;7.70;;;4.18;;
80707;SDS011;70222;49.204;-122.940;2023-08-24T08:51:49;7.30;;;4.15;;
80707;SDS011;70222;49.204;-122.940;2023-08-24T08:54:16;7.72;;;4.00;;
80707;SDS011;70222;49.204;-122.940;2023-08-24T08:56:42;6.65;;;3.75;;
80707;SDS011;70222;49.204;-122.940;2023-08-24T08:59:09;7.50;;;4.68;;
80707;SDS011;70222;49.204;-122.940;2023-08-24T09:01:37;7.30;;;4.53;;
80707;SDS011;70222;49.204;-122.940;2023-08-24T09:04:03;7.93;;;4.18;;
80707;SDS011;70222;49.204;-122.940;2023-08-24T09:06:31;6.07;;;4.00;;
80707;SDS011;70222;49.204;-122.940;2023-08-24T09:08:57;6.82;;;4.22;;
80707;SDS011;70222;49.204;-122.940;2023-08-24T09:11:23;6.80;;;4.47;;
80707;SDS011;70222;49.204;-122.940;2023-08-24T09:13:49;8.02;;;4.20;;
80707;SDS011;70222;49.204;-122.940;2023-08-24T09:16:16;5.95;;;4.00;;
80707;SDS011;70222;49.204;-122.940;2023-08-24T09:18:43;7.00;;;4.05;;
80707;SDS011;70222;49.204;-122.940;2023-08-24T09:21:12;6.07;;;3.78;;
80707;SDS011;70222;49.204;-122.940;2023-08-24T09:23:51;4.65;;;4.15;;
80707;SDS011;70222;49.204;-122.940;2023-08-24T09:26:32;6.40;;;3.80;;
80707;SDS011;70222;49.204;-122.940;2023-08-24T09:29:00;7.05;;;4.70;;
80707;SDS011;70222;49.204;-122.940;2023-08-24T09:31:37;7.05;;;4.90;;
80707;SDS011;70222;49.204;-122.940;2023-08-24T09:34:04;8.25;;;4.07;;
80707;SDS011;70222;49.204;-122.940;2023-08-24T09:39:00;6.63;;;3.83;;
80707;SDS011;70222;49.204;-122.940;2023-08-24T09:44:14;7.85;;;4.38;;
80707;SDS011;70222;49.204;-122.940;2023-08-24T09:46:42;7.07;;;4.05;;
80707;SDS011;70222;49.204;-122.940;2023-08-24T09:49:09;6.50;;;4.03;;
80707;SDS011;70222;49.204;-122.940;2023-08-24T09:51:37;6.22;;;3.55;;
80707;SDS011;70222;49.204;-122.940;2023-08-24T09:54:07;7.35;;;4.18;;
80707;SDS011;70222;49.204;-122.940;2023-08-24T09:56:38;6.18;;;3.80;;
80707;SDS011;70222;49.204;-122.940;2023-08-24T09:59:17;8.32;;;4.60;;
80707;SDS011;70222;49.204;-122.940;2023-08-24T10:01:44;5.75;;;3.53;;
80707;SDS011;70222;49.204;-122.940;2023-08-24T10:04:17;5.05;;;3.55;;
80707;SDS011;70222;49.204;-122.940;2023-08-24T10:07:10;6.55;;;3.58;;
80707;SDS011;70222;49.204;-122.940;2023-08-24T10:12:09;7.15;;;4.10;;
80707;SDS011;70222;49.204;-122.940;2023-08-24T10:14:39;5.38;;;3.92;;
80707;SDS011;70222;49.204;-122.940;2023-08-24T10:17:10;6.65;;;4.32;;
80707;SDS011;70222;49.204;-122.940;2023-08-24T10:19:37;6.35;;;4.35;;
80707;SDS011;70222;49.204;-122.940;2023-08-24T10:22:03;6.43;;;4.22;;
80707;SDS011;70222;49.204;-122.940;2023-08-24T10:24:31;6.53;;;4.03;;
80707;SDS011;70222;49.204;-122.940;2023-08-24T10:26:58;7.22;;;4.25;;
80707;SDS011;70222;49.204;-122.940;2023-08-24T10:29:25;8.15;;;4.78;;
80707;SDS011;70222;49.204;-122.940;2023-08-24T10:31:53;9.20;;;4.65;;
80707;SDS011;70222;49.204;-122.940;2023-08-24T10:34:20;8.45;;;4.88;;
80707;SDS011;70222;49.204;-122.940;2023-08-24T10:36:47;6.95;;;4.60;;
80707;SDS011;70222;49.204;-122.940;2023-08-24T10:39:16;8.07;;;4.72;;
80707;SDS011;70222;49.204;-122.940;2023-08-24T10:41:46;9.00;;;5.15;;
80707;SDS011;70222;49.204;-122.940;2023-08-24T10:44:25;6.95;;;4.68;;
80707;SDS011;70222;49.204;-122.940;2023-08-24T10:47:18;7.25;;;4.82;;
80707;SDS011;70222;49.204;-122.940;2023-08-24T10:49:44;6.80;;;4.45;;
80707;SDS011;70222;49.204;-122.940;2023-08-24T10:52:30;6.40;;;4.00;;
80707;SDS011;70222;49.204;-122.940;2023-08-24T10:54:59;7.50;;;4.45;;
80707;SDS011;70222;49.204;-122.940;2023-08-24T10:57:27;5.45;;;3.90;;
80707;SDS011;70222;49.204;-122.940;2023-08-24T11:00:04;6.78;;;3.78;;
80707;SDS011;70222;49.204;-122.940;2023-08-24T11:02:52;6.82;;;3.95;;
80707;SDS011;70222;49.204;-122.940;2023-08-24T11:05:19;7.07;;;4.22;;
80707;SDS011;70222;49.204;-122.940;2023-08-24T11:10:17;6.28;;;3.80;;
80707;SDS011;70222;49.204;-122.940;2023-08-24T11:15:44;6.25;;;4.10;;
80707;SDS011;70222;49.204;-122.940;2023-08-24T11:18:21;7.13;;;4.20;;
80707;SDS011;70222;49.204;-122.940;2023-08-24T11:23:30;5.65;;;4.00;;
80707;SDS011;70222;49.204;-122.940;2023-08-24T11:25:57;7.22;;;4.22;;
80707;SDS011;70222;49.204;-122.940;2023-08-24T11:28:28;6.05;;;3.60;;
80707;SDS011;70222;49.204;-122.940;2023-08-24T11:30:55;7.88;;;4.40;;
80707;SDS011;70222;49.204;-122.940;2023-08-24T11:33:32;7.63;;;4.18;;
80707;SDS011;70222;49.204;-122.940;2023-08-24T11:35:59;6.28;;;4.03;;
80707;SDS011;70222;49.204;-122.940;2023-08-24T11:38:39;5.63;;;3.75;;
80707;SDS011;70222;49.204;-122.940;2023-08-24T11:43:42;6.18;;;3.60;;
80707;SDS011;70222;49.204;-122.940;2023-08-24T11:48:34;6.47;;;4.03;;
80707;SDS011;70222;49.204;-122.940;2023-08-24T11:51:02;8.10;;;4.10;;
80707;SDS011;70222;49.204;-122.940;2023-08-24T11:53:28;7.38;;;4.25;;
80707;SDS011;70222;49.204;-122.940;2023-08-24T11:55:57;6.40;;;3.80;;
80707;SDS011;70222;49.204;-122.940;2023-08-24T11:58:23;7.10;;;4.20;;
80707;SDS011;70222;49.204;-122.940;2023-08-24T12:00:49;7.00;;;4.00;;
80707;SDS011;70222;49.204;-122.940;2023-08-24T12:03:15;6.65;;;3.38;;
80707;SDS011;70222;49.204;-122.940;2023-08-24T12:05:42;6.18;;;4.15;;
80707;SDS011;70222;49.204;-122.940;2023-08-24T12:08:08;6.47;;;4.30;;
80707;SDS011;70222;49.204;-122.940;2023-08-24T12:10:41;6.47;;;4.03;;
80707;SDS011;70222;49.204;-122.940;2023-08-24T12:13:11;6.53;;;4.43;;
80707;SDS011;70222;49.204;-122.940;2023-08-24T12:18:07;7.32;;;4.25;;
80707;SDS011;70222;49.204;-122.940;2023-08-24T12:20:34;7.65;;;4.25;;
80707;SDS011;70222;49.204;-122.940;2023-08-24T12:23:00;6.50;;;4.20;;
80707;SDS011;70222;49.204;-122.940;2023-08-24T12:25:26;6.30;;;4.07;;
80707;SDS011;70222;49.204;-122.940;2023-08-24T12:27:53;7.07;;;4.03;;
80707;SDS011;70222;49.204;-122.940;2023-08-24T12:30:47;8.73;;;4.82;;
80707;SDS011;70222;49.204;-122.940;2023-08-24T12:35:53;6.10;;;4.30;;
80707;SDS011;70222;49.204;-122.940;2023-08-24T12:38:20;7.72;;;4.32;;
80707;SDS011;70222;49.204;-122.940;2023-08-24T12:40:47;6.30;;;3.88;;
80707;SDS011;70222;49.204;-122.940;2023-08-24T12:43:14;6.15;;;3.40;;
80707;SDS011;70222;49.204;-122.940;2023-08-24T12:45:40;6.13;;;4.40;;
80707;SDS011;70222;49.204;-122.940;2023-08-24T12:48:07;5.93;;;4.25;;
80707;SDS011;70222;49.204;-122.940;2023-08-24T12:50:33;6.28;;;3.80;;
80707;SDS011;70222;49.204;-122.940;2023-08-24T12:53:00;7.90;;;4.35;;
80707;SDS011;70222;49.204;-122.940;2023-08-24T12:55:27;7.82;;;4.25;;
80707;SDS011;70222;49.204;-122.940;2023-08-24T12:57:53;8.10;;;4.20;;
80707;SDS011;70222;49.204;-122.940;2023-08-24T13:00:19;6.00;;;4.10;;
80707;SDS011;70222;49.204;-122.940;2023-08-24T13:02:45;7.65;;;4.43;;
80707;SDS011;70222;49.204;-122.940;2023-08-24T13:05:12;7.50;;;4.93;;
80707;SDS011;70222;49.204;-122.940;2023-08-24T13:07:38;6.10;;;3.88;;
80707;SDS011;70222;49.204;-122.940;2023-08-24T13:10:04;9.82;;;4.55;;
80707;SDS011;70222;49.204;-122.940;2023-08-24T13:12:31;6.57;;;4.70;;
80707;SDS011;70222;49.204;-122.940;2023-08-24T13:14:58;6.65;;;4.18;;
80707;SDS011;70222;49.204;-122.940;2023-08-24T13:17:24;8.60;;;4.65;;
80707;SDS011;70222;49.204;-122.940;2023-08-24T13:19:50;6.88;;;4.00;;
80707;SDS011;70222;49.204;-122.940;2023-08-24T13:22:16;8.60;;;5.10;;
80707;SDS011;70222;49.204;-122.940;2023-08-24T13:24:42;7.00;;;4.60;;
80707;SDS011;70222;49.204;-122.940;2023-08-24T13:29:40;5.95;;;3.85;;
80707;SDS011;70222;49.204;-122.940;2023-08-24T13:32:06;7.43;;;4.57;;
80707;SDS011;70222;49.204;-122.940;2023-08-24T13:34:32;7.30;;;4.45;;
80707;SDS011;70222;49.204;-122.940;2023-08-24T13:36:59;7.70;;;4.72;;
80707;SDS011;70222;49.204;-122.940;2023-08-24T13:39:25;6.22;;;4.15;;
80707;SDS011;70222;49.204;-122.940;2023-08-24T13:41:55;6.53;;;4.38;;
80707;SDS011;70222;49.204;-122.940;2023-08-24T13:47:46;6.25;;;4.63;;
80707;SDS011;70222;49.204;-122.940;2023-08-24T13:50:14;6.70;;;4.10;;
80707;SDS011;70222;49.204;-122.940;2023-08-24T13:52:42;6.68;;;4.55;;
80707;SDS011;70222;49.204;-122.940;2023-08-24T13:55:08;9.77;;;5.30;;
80707;SDS011;70222;49.204;-122.940;2023-08-24T13:57:37;9.30;;;4.72;;
80707;SDS011;70222;49.204;-122.940;2023-08-24T14:00:03;7.43;;;4.28;;
80707;SDS011;70222;49.204;-122.940;2023-08-24T14:02:31;8.38;;;4.90;;
80707;SDS011;70222;49.204;-122.940;2023-08-24T14:04:57;6.03;;;4.13;;
80707;SDS011;70222;49.204;-122.940;2023-08-24T14:07:23;7.00;;;4.35;;
80707;SDS011;70222;49.204;-122.940;2023-08-24T14:09:49;6.40;;;3.80;;
80707;SDS011;70222;49.204;-122.940;2023-08-24T14:12:15;7.38;;;4.65;;
80707;SDS011;70222;49.204;-122.940;2023-08-24T14:14:41;8.57;;;3.90;;
80707;SDS011;70222;49.204;-122.940;2023-08-24T14:17:07;8.63;;;4.63;;
80707;SDS011;70222;49.204;-122.940;2023-08-24T14:19:33;8.38;;;4.35;;
80707;SDS011;70222;49.204;-122.940;2023-08-24T14:21:59;6.97;;;4.47;;
80707;SDS011;70222;49.204;-122.940;2023-08-24T14:24:26;7.07;;;4.32;;
80707;SDS011;70222;49.204;-122.940;2023-08-24T14:26:52;8.75;;;4.47;;
80707;SDS011;70222;49.204;-122.940;2023-08-24T14:29:18;5.80;;;4.00;;
80707;SDS011;70222;49.204;-122.940;2023-08-24T14:31:44;7.60;;;3.90;;
80707;SDS011;70222;49.204;-122.940;2023-08-24T14:34:10;6.32;;;3.85;;
80707;SDS011;70222;49.204;-122.940;2023-08-24T14:36:36;7.60;;;4.13;;
80707;SDS011;70222;49.204;-122.940;2023-08-24T14:39:02;6.45;;;4.45;;
80707;SDS011;70222;49.204;-122.940;2023-08-24T14:41:28;8.73;;;4.88;;
80707;SDS011;70222;49.204;-122.940;2023-08-24T14:43:54;6.43;;;4.30;;
80707;SDS011;70222;49.204;-122.940;2023-08-24T14:46:20;7.07;;;4.00;;
80707;SDS011;70222;49.204;-122.940;2023-08-24T14:48:47;7.30;;;4.53;;
80707;SDS011;70222;49.204;-122.940;2023-08-24T14:51:13;14.10;;;5.85;;
80707;SDS011;70222;49.204;-122.940;2023-08-24T14:53:39;8.27;;;5.60;;
80707;SDS011;70222;49.204;-122.940;2023-08-24T14:56:05;9.10;;;4.85;;
80707;SDS011;70222;49.204;-122.940;2023-08-24T14:58:31;10.57;;;6.63;;
80707;SDS011;70222;49.204;-122.940;2023-08-24T15:00:57;12.25;;;6.22;;
80707;SDS011;70222;49.204;-122.940;2023-08-24T15:03:23;13.15;;;7.40;;
80707;SDS011;70222;49.204;-122.940;2023-08-24T15:06:02;10.45;;;6.18;;